Terminal Aerodrome Forecast
Issued by NWS

Home | Current Version | Previous Version | Graphics & Text | Print | Product List | Glossary On
Versions: 1 2 3 4 5 6 7 8 9 10 11 12 13 14 15 16 17 18 19 20 21 22 23
000
FTUS43 KABR 301000 AAA
TAFPIR
TAF AMD
KPIR 301033Z 3011/3106 31017KT P6SM SKC
     FM301500 34016G23KT P6SM OVC025
     FM310100 36007KT P6SM SKC=

USA.gov is the U.S. government's official web portal to all federal, state and local government web resources and services.